sensor_id;sensor_type;location;lat;lon;timestamp;pressure;altitude;pressure_sealevel;temperature;humidity
35121;BME280;21297;52.008;4.576;2023-06-26T00:02:04;51993.06;;;-143.47;54.78
35121;BME280;21297;52.008;4.576;2023-06-26T00:04:50;51957.63;;;-143.47;56.42
35121;BME280;21297;52.008;4.576;2023-06-26T00:07:39;51912.38;;;-143.47;58.78
35121;BME280;21297;52.008;4.576;2023-06-26T00:10:24;51888.75;;;-143.47;59.82
35121;BME280;21297;52.008;4.576;2023-06-26T00:13:10;51821.84;;;-143.47;61.13
35121;BME280;21297;52.008;4.576;2023-06-26T00:15:57;51798.22;;;-143.47;61.25
35121;BME280;21297;52.008;4.576;2023-06-26T00:18:43;51735.25;;;-143.47;62.51
35121;BME280;21297;52.008;4.576;2023-06-26T00:21:29;51684.09;;;-143.47;63.50
35121;BME280;21297;52.008;4.576;2023-06-26T00:24:14;51629.00;;;-143.47;62.65
35121;BME280;21297;52.008;4.576;2023-06-26T00:27:00;51581.78;;;-143.47;63.69
35121;BME280;21297;52.008;4.576;2023-06-26T00:29:46;51566.03;;;-143.47;62.48
35121;BME280;21297;52.008;4.576;2023-06-26T00:32:31;51479.47;;;-143.47;63.74
35121;BME280;21297;52.008;4.576;2023-06-26T00:35:17;51451.91;;;-143.47;64.63
35121;BME280;21297;52.008;4.576;2023-06-26T00:38:03;51430.25;;;-143.47;65.28
35121;BME280;21297;52.008;4.576;2023-06-26T00:40:48;51298.44;;;-143.47;67.05
35121;BME280;21297;52.008;4.576;2023-06-26T00:43:34;51333.84;;;-143.47;67.53
35121;BME280;21297;52.008;4.576;2023-06-26T00:46:20;51318.13;;;-143.47;67.98
35121;BME280;21297;52.008;4.576;2023-06-26T00:49:06;51286.63;;;-143.47;69.12
35121;BME280;21297;52.008;4.576;2023-06-26T00:51:52;51247.28;;;-143.47;69.91
35121;BME280;21297;52.008;4.576;2023-06-26T00:54:38;51215.78;;;-143.47;70.03
35121;BME280;21297;52.008;4.576;2023-06-26T00:57:25;51196.13;;;-143.47;70.61
35121;BME280;21297;52.008;4.576;2023-06-26T01:00:11;51207.94;;;-143.47;71.22
35121;BME280;21297;52.008;4.576;2023-06-26T01:02:57;51231.53;;;-143.47;71.14
35121;BME280;21297;52.008;4.576;2023-06-26T01:05:44;51162.69;;;-143.47;71.52
35121;BME280;21297;52.008;4.576;2023-06-26T01:08:31;51172.50;;;-143.47;72.12
35121;BME280;21297;52.008;4.576;2023-06-26T01:11:17;51188.25;;;-143.47;72.61
35121;BME280;21297;52.008;4.576;2023-06-26T01:14:03;51164.63;;;-143.47;74.33
35121;BME280;21297;52.008;4.576;2023-06-26T01:16:49;51091.84;;;-143.47;74.71
35121;BME280;21297;52.008;4.576;2023-06-26T01:19:35;51160.72;;;-143.47;74.66
35121;BME280;21297;52.008;4.576;2023-06-26T01:22:36;51164.63;;;-143.47;74.75
35121;BME280;21297;52.008;4.576;2023-06-26T01:25:38;51152.84;;;-143.47;75.38
35121;BME280;21297;52.008;4.576;2023-06-26T01:28:27;51172.50;;;-143.47;74.99
35121;BME280;21297;52.008;4.576;2023-06-26T01:31:13;51085.94;;;-143.47;77.02
35121;BME280;21297;52.008;4.576;2023-06-26T01:34:00;51109.56;;;-143.47;76.39
35121;BME280;21297;52.008;4.576;2023-06-26T01:36:46;51129.22;;;-143.47;76.89
35121;BME280;21297;52.008;4.576;2023-06-26T01:39:32;51032.81;;;-143.47;78.26
35121;BME280;21297;52.008;4.576;2023-06-26T01:42:17;51109.56;;;-143.47;78.65
35121;BME280;21297;52.008;4.576;2023-06-26T01:45:12;51135.13;;;-143.47;78.71
35121;BME280;21297;52.008;4.576;2023-06-26T01:47:59;51107.59;;;-143.47;78.02
35121;BME280;21297;52.008;4.576;2023-06-26T01:50:47;51062.34;;;-143.47;79.68
35121;BME280;21297;52.008;4.576;2023-06-26T01:53:38;51101.69;;;-143.47;78.42
35121;BME280;21297;52.008;4.576;2023-06-26T01:56:28;51052.50;;;-143.47;79.06
35121;BME280;21297;52.008;4.576;2023-06-26T01:59:14;51078.06;;;-143.47;79.29
35121;BME280;21297;52.008;4.576;2023-06-26T02:02:01;51087.91;;;-143.47;78.52
35121;BME280;21297;52.008;4.576;2023-06-26T02:04:46;51093.81;;;-143.47;78.43
35121;BME280;21297;52.008;4.576;2023-06-26T02:07:33;51052.50;;;-143.47;79.56
35121;BME280;21297;52.008;4.576;2023-06-26T02:10:19;51078.06;;;-143.47;79.58
35121;BME280;21297;52.008;4.576;2023-06-26T02:13:04;51050.53;;;-143.47;79.58
35121;BME280;21297;52.008;4.576;2023-06-26T02:15:50;51056.44;;;-143.47;79.36
35121;BME280;21297;52.008;4.576;2023-06-26T02:18:36;50977.72;;;-143.47;79.50
35121;BME280;21297;52.008;4.576;2023-06-26T02:21:22;50971.81;;;-143.47;78.22
35121;BME280;21297;52.008;4.576;2023-06-26T02:24:07;51005.28;;;-143.47;77.38
35121;BME280;21297;52.008;4.576;2023-06-26T02:26:53;51054.47;;;-143.47;77.05
35121;BME280;21297;52.008;4.576;2023-06-26T02:29:39;51062.34;;;-143.47;76.70
35121;BME280;21297;52.008;4.576;2023-06-26T02:32:25;51044.63;;;-143.47;76.53
35121;BME280;21297;52.008;4.576;2023-06-26T02:35:11;50942.31;;;-143.47;76.48
35121;BME280;21297;52.008;4.576;2023-06-26T02:37:56;50944.28;;;-143.47;76.40
35121;BME280;21297;52.008;4.576;2023-06-26T02:40:42;50897.06;;;-143.47;77.20
35121;BME280;21297;52.008;4.576;2023-06-26T02:43:27;50934.44;;;-143.47;76.25
35121;BME280;21297;52.008;4.576;2023-06-26T02:46:13;50930.50;;;-143.47;76.77
35121;BME280;21297;52.008;4.576;2023-06-26T02:48:59;50958.06;;;-143.47;75.13
35121;BME280;21297;52.008;4.576;2023-06-26T02:51:44;50859.69;;;-143.47;75.81
35121;BME280;21297;52.008;4.576;2023-06-26T02:54:30;50812.47;;;-143.47;78.05
35121;BME280;21297;52.008;4.576;2023-06-26T02:57:16;50771.16;;;-143.47;77.76
35121;BME280;21297;52.008;4.576;2023-06-26T03:00:02;50753.44;;;-143.47;80.07
35121;BME280;21297;52.008;4.576;2023-06-26T03:02:48;50745.56;;;-143.47;79.37
35121;BME280;21297;52.008;4.576;2023-06-26T03:05:34;50721.97;;;-143.47;80.25
35121;BME280;21297;52.008;4.576;2023-06-26T03:08:19;50712.13;;;-143.47;80.18
35121;BME280;21297;52.008;4.576;2023-06-26T03:11:05;50659.03;;;-143.47;82.94
35121;BME280;21297;52.008;4.576;2023-06-26T03:13:51;50682.63;;;-143.47;82.41
35121;BME280;21297;52.008;4.576;2023-06-26T03:16:37;50623.59;;;-143.47;83.23
35121;BME280;21297;52.008;4.576;2023-06-26T03:19:23;50649.19;;;-143.47;84.01
35121;BME280;21297;52.008;4.576;2023-06-26T03:22:09;50655.09;;;-143.47;84.24
35121;BME280;21297;52.008;4.576;2023-06-26T03:24:54;50662.94;;;-143.47;84.42
35121;BME280;21297;52.008;4.576;2023-06-26T03:27:41;50643.28;;;-143.47;83.06
35121;BME280;21297;52.008;4.576;2023-06-26T03:30:26;50613.78;;;-143.47;83.22
35121;BME280;21297;52.008;4.576;2023-06-26T03:33:12;50600.00;;;-143.47;83.43
35121;BME280;21297;52.008;4.576;2023-06-26T03:35:57;50574.44;;;-143.47;84.49
35121;BME280;21297;52.008;4.576;2023-06-26T03:38:44;50527.22;;;-143.47;85.97
35121;BME280;21297;52.008;4.576;2023-06-26T03:41:30;50523.28;;;-143.47;86.50
35121;BME280;21297;52.008;4.576;2023-06-26T03:44:16;50539.00;;;-143.47;86.41
35121;BME280;21297;52.008;4.576;2023-06-26T03:47:02;50480.00;;;-143.47;87.49
35121;BME280;21297;52.008;4.576;2023-06-26T03:49:47;50525.25;;;-143.47;87.41
35121;BME280;21297;52.008;4.576;2023-06-26T03:52:33;50509.50;;;-143.47;88.02
35121;BME280;21297;52.008;4.576;2023-06-26T03:55:19;50495.75;;;-143.47;88.68
35121;BME280;21297;52.008;4.576;2023-06-26T03:58:04;50531.16;;;-143.47;88.58
35121;BME280;21297;52.008;4.576;2023-06-26T04:00:50;50487.88;;;-143.47;88.70
35121;BME280;21297;52.008;4.576;2023-06-26T04:03:36;50497.69;;;-143.47;87.27
35121;BME280;21297;52.008;4.576;2023-06-26T04:06:22;50464.25;;;-143.47;88.74
35121;BME280;21297;52.008;4.576;2023-06-26T04:09:07;50556.72;;;-143.47;86.17
35121;BME280;21297;52.008;4.576;2023-06-26T04:11:53;50539.00;;;-143.47;87.25
35121;BME280;21297;52.008;4.576;2023-06-26T04:14:39;50509.50;;;-143.47;87.64
35121;BME280;21297;52.008;4.576;2023-06-26T04:17:24;50483.94;;;-143.47;87.70
35121;BME280;21297;52.008;4.576;2023-06-26T04:20:10;50466.22;;;-143.47;88.30
35121;BME280;21297;52.008;4.576;2023-06-26T04:22:56;50483.94;;;-143.47;88.81
35121;BME280;21297;52.008;4.576;2023-06-26T04:25:41;50399.34;;;-143.47;90.24
35121;BME280;21297;52.008;4.576;2023-06-26T04:28:27;50456.41;;;-143.47;91.34
35121;BME280;21297;52.008;4.576;2023-06-26T04:31:12;50511.47;;;-143.47;89.78
35121;BME280;21297;52.008;4.576;2023-06-26T04:33:58;50483.94;;;-143.47;88.87
35121;BME280;21297;52.008;4.576;2023-06-26T04:36:44;50478.03;;;-143.47;88.26
35121;BME280;21297;52.008;4.576;2023-06-26T04:39:33;50458.34;;;-143.47;90.44
35121;BME280;21297;52.008;4.576;2023-06-26T04:42:18;50485.91;;;-143.47;90.99
35121;BME280;21297;52.008;4.576;2023-06-26T04:45:07;50483.94;;;-143.47;87.88
35121;BME280;21297;52.008;4.576;2023-06-26T04:47:52;50481.97;;;-143.47;87.20
35121;BME280;21297;52.008;4.576;2023-06-26T04:50:39;50558.69;;;-143.47;86.56
35121;BME280;21297;52.008;4.576;2023-06-26T04:53:25;50523.28;;;-143.47;84.02
35121;BME280;21297;52.008;4.576;2023-06-26T04:56:11;50533.13;;;-143.47;82.23
35121;BME280;21297;52.008;4.576;2023-06-26T04:58:56;50615.75;;;-143.47;81.25
35121;BME280;21297;52.008;4.576;2023-06-26T05:01:42;50657.06;;;-143.47;80.06
35121;BME280;21297;52.008;4.576;2023-06-26T05:04:33;50619.66;;;-143.47;81.34
35121;BME280;21297;52.008;4.576;2023-06-26T05:07:18;50568.53;;;-143.47;84.98
35121;BME280;21297;52.008;4.576;2023-06-26T05:10:05;50594.09;;;-143.47;83.40
35121;BME280;21297;52.008;4.576;2023-06-26T05:12:50;50576.41;;;-143.47;83.17
35121;BME280;21297;52.008;4.576;2023-06-26T05:15:36;50527.22;;;-143.47;86.37
35121;BME280;21297;52.008;4.576;2023-06-26T05:18:22;50485.91;;;-143.47;87.13
35121;BME280;21297;52.008;4.576;2023-06-26T05:21:08;50539.00;;;-143.47;86.74
35121;BME280;21297;52.008;4.576;2023-06-26T05:23:56;50527.22;;;-143.47;86.44
35121;BME280;21297;52.008;4.576;2023-06-26T05:26:42;50554.75;;;-143.47;86.40
35121;BME280;21297;52.008;4.576;2023-06-26T05:29:29;50560.66;;;-143.47;86.23
35121;BME280;21297;52.008;4.576;2023-06-26T05:32:16;50558.69;;;-143.47;86.32
35121;BME280;21297;52.008;4.576;2023-06-26T05:35:06;50574.44;;;-143.47;86.96
35121;BME280;21297;52.008;4.576;2023-06-26T05:37:52;50570.50;;;-143.47;85.83
35121;BME280;21297;52.008;4.576;2023-06-26T05:40:40;50670.81;;;-143.47;80.52
35121;BME280;21297;52.008;4.576;2023-06-26T05:43:26;50601.97;;;-143.47;79.70
35121;BME280;21297;52.008;4.576;2023-06-26T05:46:11;50582.28;;;-143.47;76.63
35121;BME280;21297;52.008;4.576;2023-06-26T05:48:57;50489.84;;;-143.47;79.48
35121;BME280;21297;52.008;4.576;2023-06-26T05:51:43;50525.25;;;-143.47;78.36
35121;BME280;21297;52.008;4.576;2023-06-26T05:54:29;50464.25;;;-143.47;77.76
35121;BME280;21297;52.008;4.576;2023-06-26T05:57:15;50432.78;;;-143.47;77.20
35121;BME280;21297;52.008;4.576;2023-06-26T06:00:01;50456.41;;;-143.47;77.55
35121;BME280;21297;52.008;4.576;2023-06-26T06:02:47;50454.44;;;-143.47;75.67
35121;BME280;21297;52.008;4.576;2023-06-26T06:05:33;50432.78;;;-143.47;73.19
35121;BME280;21297;52.008;4.576;2023-06-26T06:08:19;50432.78;;;-143.47;73.45
35121;BME280;21297;52.008;4.576;2023-06-26T06:11:05;50448.53;;;-143.47;73.51
35121;BME280;21297;52.008;4.576;2023-06-26T06:13:51;50456.41;;;-143.47;73.16
35121;BME280;21297;52.008;4.576;2023-06-26T06:16:36;50415.09;;;-143.47;72.78
35121;BME280;21297;52.008;4.576;2023-06-26T06:19:22;50495.75;;;-143.47;72.49
35121;BME280;21297;52.008;4.576;2023-06-26T06:22:08;50564.59;;;-143.47;71.53
35121;BME280;21297;52.008;4.576;2023-06-26T06:24:54;50615.75;;;-143.47;68.47
35121;BME280;21297;52.008;4.576;2023-06-26T06:27:39;50462.28;;;-143.47;71.03
35121;BME280;21297;52.008;4.576;2023-06-26T06:30:25;50403.28;;;-143.47;72.01
35121;BME280;21297;52.008;4.576;2023-06-26T06:33:11;50361.97;;;-143.47;73.46
35121;BME280;21297;52.008;4.576;2023-06-26T06:35:56;50381.63;;;-143.47;74.31
35121;BME280;21297;52.008;4.576;2023-06-26T06:38:45;50397.38;;;-143.47;73.93
35121;BME280;21297;52.008;4.576;2023-06-26T06:41:31;50438.69;;;-143.47;73.11
35121;BME280;21297;52.008;4.576;2023-06-26T06:44:16;50395.41;;;-143.47;73.02
35121;BME280;21297;52.008;4.576;2023-06-26T06:47:02;50570.50;;;-143.47;70.91
35121;BME280;21297;52.008;4.576;2023-06-26T06:49:48;50546.88;;;-143.47;70.16
35121;BME280;21297;52.008;4.576;2023-06-26T06:52:37;50531.16;;;-143.47;69.70
35121;BME280;21297;52.008;4.576;2023-06-26T06:55:23;50460.31;;;-143.47;71.03
35121;BME280;21297;52.008;4.576;2023-06-26T06:58:11;50533.13;;;-143.47;72.13
35121;BME280;21297;52.008;4.576;2023-06-26T07:00:57;50659.03;;;-143.47;70.29
35121;BME280;21297;52.008;4.576;2023-06-26T07:03:42;50572.47;;;-143.47;69.27
35121;BME280;21297;52.008;4.576;2023-06-26T07:06:28;50550.81;;;-143.47;72.69
35121;BME280;21297;52.008;4.576;2023-06-26T07:09:15;50603.94;;;-143.47;71.40
35121;BME280;21297;52.008;4.576;2023-06-26T07:12:01;50596.06;;;-143.47;70.33
35121;BME280;21297;52.008;4.576;2023-06-26T07:14:46;50739.69;;;-143.47;68.10
35121;BME280;21297;52.008;4.576;2023-06-26T07:17:33;50564.59;;;-143.47;67.77
35121;BME280;21297;52.008;4.576;2023-06-26T07:20:19;50440.66;;;-143.47;71.09
35121;BME280;21297;52.008;4.576;2023-06-26T07:23:05;50464.25;;;-143.47;70.27
35121;BME280;21297;52.008;4.576;2023-06-26T07:25:50;50523.28;;;-143.47;72.69
35121;BME280;21297;52.008;4.576;2023-06-26T07:28:36;50623.59;;;-143.47;69.46
35121;BME280;21297;52.008;4.576;2023-06-26T07:31:22;50582.28;;;-143.47;68.32
35121;BME280;21297;52.008;4.576;2023-06-26T07:34:07;50533.13;;;-143.47;68.37
35121;BME280;21297;52.008;4.576;2023-06-26T07:36:53;50558.69;;;-143.47;68.75
35121;BME280;21297;52.008;4.576;2023-06-26T07:39:38;50497.69;;;-143.47;68.37
35121;BME280;21297;52.008;4.576;2023-06-26T07:42:24;50487.88;;;-143.47;71.17
35121;BME280;21297;52.008;4.576;2023-06-26T07:45:10;50523.28;;;-143.47;70.16
35121;BME280;21297;52.008;4.576;2023-06-26T07:47:57;50483.94;;;-143.47;70.80
35121;BME280;21297;52.008;4.576;2023-06-26T07:50:43;50661.00;;;-143.47;69.24
35121;BME280;21297;52.008;4.576;2023-06-26T07:53:28;50727.88;;;-143.47;66.31
35121;BME280;21297;52.008;4.576;2023-06-26T07:56:14;50790.81;;;-143.47;66.15
35121;BME280;21297;52.008;4.576;2023-06-26T07:59:00;50706.22;;;-143.47;66.21
35121;BME280;21297;52.008;4.576;2023-06-26T08:01:50;50621.63;;;-143.47;67.13
35121;BME280;21297;52.008;4.576;2023-06-26T08:04:37;50745.56;;;-143.47;64.54
35121;BME280;21297;52.008;4.576;2023-06-26T08:07:22;50723.94;;;-143.47;65.25
35121;BME280;21297;52.008;4.576;2023-06-26T08:10:08;50696.41;;;-143.47;63.36
35121;BME280;21297;52.008;4.576;2023-06-26T08:12:54;50773.13;;;-143.47;64.35
35121;BME280;21297;52.008;4.576;2023-06-26T08:15:40;50747.53;;;-143.47;63.61
35121;BME280;21297;52.008;4.576;2023-06-26T08:18:26;50708.19;;;-143.47;61.45
35121;BME280;21297;52.008;4.576;2023-06-26T08:21:12;50830.19;;;-143.47;60.21
35121;BME280;21297;52.008;4.576;2023-06-26T08:23:57;50857.72;;;-143.47;60.44
35121;BME280;21297;52.008;4.576;2023-06-26T08:26:45;50794.75;;;-143.47;61.51
35121;BME280;21297;52.008;4.576;2023-06-26T08:29:31;50910.84;;;-143.47;59.98
35121;BME280;21297;52.008;4.576;2023-06-26T08:32:16;50641.31;;;-143.47;62.72
35121;BME280;21297;52.008;4.576;2023-06-26T08:35:02;50641.31;;;-143.47;63.79
35121;BME280;21297;52.008;4.576;2023-06-26T08:37:48;50729.84;;;-143.47;63.88
35121;BME280;21297;52.008;4.576;2023-06-26T08:40:33;50710.16;;;-143.47;63.10
35121;BME280;21297;52.008;4.576;2023-06-26T08:43:19;50664.91;;;-143.47;64.59
35121;BME280;21297;52.008;4.576;2023-06-26T08:46:07;50737.72;;;-143.47;60.88
35121;BME280;21297;52.008;4.576;2023-06-26T08:48:57;50796.72;;;-143.47;62.58
35121;BME280;21297;52.008;4.576;2023-06-26T08:51:52;50704.25;;;-143.47;60.76
35121;BME280;21297;52.008;4.576;2023-06-26T08:54:45;50651.16;;;-143.47;62.41
35121;BME280;21297;52.008;4.576;2023-06-26T08:57:32;50651.16;;;-143.47;61.28
35121;BME280;21297;52.008;4.576;2023-06-26T09:00:18;50664.91;;;-143.47;60.21
35121;BME280;21297;52.008;4.576;2023-06-26T09:03:04;50688.53;;;-143.47;60.81
35121;BME280;21297;52.008;4.576;2023-06-26T09:05:49;50743.63;;;-143.47;60.12
35121;BME280;21297;52.008;4.576;2023-06-26T09:08:35;50745.56;;;-143.47;59.10
35121;BME280;21297;52.008;4.576;2023-06-26T09:11:21;50763.28;;;-143.47;59.38
35121;BME280;21297;52.008;4.576;2023-06-26T09:14:07;50822.31;;;-143.47;57.51
35121;BME280;21297;52.008;4.576;2023-06-26T09:16:55;50849.84;;;-143.47;57.58
35121;BME280;21297;52.008;4.576;2023-06-26T09:19:45;50698.38;;;-143.47;58.29
35121;BME280;21297;52.008;4.576;2023-06-26T09:22:36;50918.72;;;-143.47;58.58
35121;BME280;21297;52.008;4.576;2023-06-26T09:25:21;50971.81;;;-143.47;56.13
35121;BME280;21297;52.008;4.576;2023-06-26T09:28:08;50960.03;;;-143.47;58.01
35121;BME280;21297;52.008;4.576;2023-06-26T09:31:00;50830.19;;;-143.47;56.75
35121;BME280;21297;52.008;4.576;2023-06-26T09:33:50;50804.59;;;-143.47;58.59
35121;BME280;21297;52.008;4.576;2023-06-26T09:36:53;50952.16;;;-143.47;55.42
35121;BME280;21297;52.008;4.576;2023-06-26T09:39:38;51089.88;;;-143.47;56.17
35121;BME280;21297;52.008;4.576;2023-06-26T09:42:24;50948.22;;;-143.47;56.48
35121;BME280;21297;52.008;4.576;2023-06-26T09:45:17;51003.31;;;-143.47;56.60
35121;BME280;21297;52.008;4.576;2023-06-26T09:48:04;51091.84;;;-143.47;57.65
35121;BME280;21297;52.008;4.576;2023-06-26T09:50:50;51066.25;;;-143.47;55.43
35121;BME280;21297;52.008;4.576;2023-06-26T09:53:36;50934.44;;;-143.47;57.32
35121;BME280;21297;52.008;4.576;2023-06-26T09:56:24;50983.63;;;-143.47;57.68
35121;BME280;21297;52.008;4.576;2023-06-26T09:59:10;51017.06;;;-143.47;56.79
35121;BME280;21297;52.008;4.576;2023-06-26T10:01:59;51160.72;;;-143.47;54.77
35121;BME280;21297;52.008;4.576;2023-06-26T10:04:45;51196.13;;;-143.47;54.51
35121;BME280;21297;52.008;4.576;2023-06-26T10:07:31;51060.38;;;-143.47;56.02
35121;BME280;21297;52.008;4.576;2023-06-26T10:10:17;50987.56;;;-143.47;57.44
35121;BME280;21297;52.008;4.576;2023-06-26T10:13:15;51207.94;;;-143.47;55.09
35121;BME280;21297;52.008;4.576;2023-06-26T10:16:03;50910.84;;;-143.47;55.77
35121;BME280;21297;52.008;4.576;2023-06-26T10:18:52;50828.22;;;-143.47;57.60
35121;BME280;21297;52.008;4.576;2023-06-26T10:21:39;50769.19;;;-143.47;58.38
35121;BME280;21297;52.008;4.576;2023-06-26T10:24:28;50983.63;;;-143.47;55.09
35121;BME280;21297;52.008;4.576;2023-06-26T10:27:17;51001.34;;;-143.47;55.25
35121;BME280;21297;52.008;4.576;2023-06-26T10:30:06;51078.06;;;-143.47;54.05
35121;BME280;21297;52.008;4.576;2023-06-26T10:32:55;50792.78;;;-143.47;56.16
35121;BME280;21297;52.008;4.576;2023-06-26T10:35:45;50889.19;;;-143.47;55.08
35121;BME280;21297;52.008;4.576;2023-06-26T10:38:51;51091.84;;;-143.47;51.58
35121;BME280;21297;52.008;4.576;2023-06-26T10:41:39;50989.53;;;-143.47;52.39
35121;BME280;21297;52.008;4.576;2023-06-26T10:44:24;50912.81;;;-143.47;50.53
35121;BME280;21297;52.008;4.576;2023-06-26T10:47:11;50971.81;;;-143.47;50.47
35121;BME280;21297;52.008;4.576;2023-06-26T10:53:12;50641.31;;;-143.47;52.87
35121;BME280;21297;52.008;4.576;2023-06-26T10:56:04;50688.53;;;-143.47;53.59
35121;BME280;21297;52.008;4.576;2023-06-26T10:58:50;50775.09;;;-143.47;52.97
35121;BME280;21297;52.008;4.576;2023-06-26T11:01:40;50704.25;;;-143.47;53.27
35121;BME280;21297;52.008;4.576;2023-06-26T11:04:45;50942.31;;;-143.47;53.30
35121;BME280;21297;52.008;4.576;2023-06-26T11:07:31;51186.28;;;-143.47;50.18
35121;BME280;21297;52.008;4.576;2023-06-26T11:10:18;51221.69;;;-143.47;49.83
35121;BME280;21297;52.008;4.576;2023-06-26T11:13:04;51074.13;;;-143.47;50.09
35121;BME280;21297;52.008;4.576;2023-06-26T11:15:50;51034.78;;;-143.47;50.27
35121;BME280;21297;52.008;4.576;2023-06-26T11:18:36;50963.97;;;-143.47;48.26
35121;BME280;21297;52.008;4.576;2023-06-26T11:21:22;50908.88;;;-143.47;49.86
35121;BME280;21297;52.008;4.576;2023-06-26T11:24:10;50790.81;;;-143.47;50.79
35121;BME280;21297;52.008;4.576;2023-06-26T11:26:59;50820.34;;;-143.47;52.34
35121;BME280;21297;52.008;4.576;2023-06-26T11:29:49;50729.84;;;-143.47;51.28
35121;BME280;21297;52.008;4.576;2023-06-26T11:32:39;50721.97;;;-143.47;53.02
35121;BME280;21297;52.008;4.576;2023-06-26T11:35:25;50802.63;;;-143.47;54.10
35121;BME280;21297;52.008;4.576;2023-06-26T11:38:17;50798.69;;;-143.47;54.32
35121;BME280;21297;52.008;4.576;2023-06-26T11:41:03;50613.78;;;-143.47;54.61
35121;BME280;21297;52.008;4.576;2023-06-26T11:43:51;50733.78;;;-143.47;53.12
35121;BME280;21297;52.008;4.576;2023-06-26T11:46:37;50802.63;;;-143.47;50.44
35121;BME280;21297;52.008;4.576;2023-06-26T11:49:23;50914.78;;;-143.47;48.60
35121;BME280;21297;52.008;4.576;2023-06-26T11:52:12;51034.78;;;-143.47;49.07
35121;BME280;21297;52.008;4.576;2023-06-26T11:54:58;51093.81;;;-143.47;46.49
35121;BME280;21297;52.008;4.576;2023-06-26T11:57:48;51172.50;;;-143.47;48.24
35121;BME280;21297;52.008;4.576;2023-06-26T12:00:34;51144.97;;;-143.47;46.81
35121;BME280;21297;52.008;4.576;2023-06-26T12:03:20;50971.81;;;-143.47;47.26
35121;BME280;21297;52.008;4.576;2023-06-26T12:06:06;50875.44;;;-143.47;49.25
35121;BME280;21297;52.008;4.576;2023-06-26T12:08:52;50710.16;;;-143.47;48.17
35121;BME280;21297;52.008;4.576;2023-06-26T12:11:40;50895.09;;;-143.47;48.53
35121;BME280;21297;52.008;4.576;2023-06-26T12:14:27;50910.84;;;-143.47;48.70
35121;BME280;21297;52.008;4.576;2023-06-26T12:17:16;50887.22;;;-143.47;50.84
35121;BME280;21297;52.008;4.576;2023-06-26T12:20:02;50810.50;;;-143.47;50.48
35121;BME280;21297;52.008;4.576;2023-06-26T12:22:50;50757.38;;;-143.47;49.04
35121;BME280;21297;52.008;4.576;2023-06-26T12:25:39;50841.97;;;-143.47;51.86
35121;BME280;21297;52.008;4.576;2023-06-26T12:28:25;50779.03;;;-143.47;51.59
35121;BME280;21297;52.008;4.576;2023-06-26T12:31:19;50950.19;;;-143.47;50.04
35121;BME280;21297;52.008;4.576;2023-06-26T12:34:09;50967.91;;;-143.47;51.69
35121;BME280;21297;52.008;4.576;2023-06-26T12:37:03;50975.75;;;-143.47;51.47
35121;BME280;21297;52.008;4.576;2023-06-26T12:39:54;50859.69;;;-143.47;49.15
35121;BME280;21297;52.008;4.576;2023-06-26T12:42:40;50763.28;;;-143.47;52.07
35121;BME280;21297;52.008;4.576;2023-06-26T12:45:25;50891.16;;;-143.47;47.98
35121;BME280;21297;52.008;4.576;2023-06-26T12:48:12;50810.50;;;-143.47;49.88
35121;BME280;21297;52.008;4.576;2023-06-26T12:50:58;50806.56;;;-143.47;53.91
35121;BME280;21297;52.008;4.576;2023-06-26T12:53:43;50995.44;;;-143.47;50.64
35121;BME280;21297;52.008;4.576;2023-06-26T12:56:29;50962.00;;;-143.47;49.38
35121;BME280;21297;52.008;4.576;2023-06-26T12:59:15;50891.16;;;-143.47;49.58
35121;BME280;21297;52.008;4.576;2023-06-26T13:02:00;50963.97;;;-143.47;49.13
35121;BME280;21297;52.008;4.576;2023-06-26T13:04:46;50952.16;;;-143.47;48.34
35121;BME280;21297;52.008;4.576;2023-06-26T13:07:32;51265.00;;;-143.47;48.79
35121;BME280;21297;52.008;4.576;2023-06-26T13:10:17;51166.59;;;-143.47;47.28
35121;BME280;21297;52.008;4.576;2023-06-26T13:13:03;50916.75;;;-143.47;47.67
35121;BME280;21297;52.008;4.576;2023-06-26T13:15:49;50802.63;;;-143.47;50.32
35121;BME280;21297;52.008;4.576;2023-06-26T13:18:34;50659.03;;;-143.47;51.32
35121;BME280;21297;52.008;4.576;2023-06-26T13:21:20;50727.88;;;-143.47;51.24
35121;BME280;21297;52.008;4.576;2023-06-26T13:24:06;50808.53;;;-143.47;50.76
35121;BME280;21297;52.008;4.576;2023-06-26T13:26:51;51052.50;;;-143.47;48.43
35121;BME280;21297;52.008;4.576;2023-06-26T13:29:37;50999.38;;;-143.47;48.73
35121;BME280;21297;52.008;4.576;2023-06-26T13:32:23;51022.97;;;-143.47;50.12
35121;BME280;21297;52.008;4.576;2023-06-26T13:35:09;51231.53;;;-143.47;49.23
35121;BME280;21297;52.008;4.576;2023-06-26T13:37:55;50993.47;;;-143.47;47.97
35121;BME280;21297;52.008;4.576;2023-06-26T13:40:41;50979.69;;;-143.47;46.62
35121;BME280;21297;52.008;4.576;2023-06-26T13:43:28;51160.72;;;-143.47;47.29
35121;BME280;21297;52.008;4.576;2023-06-26T13:46:15;51266.94;;;-143.47;48.24
35121;BME280;21297;52.008;4.576;2023-06-26T13:49:01;50928.53;;;-143.47;45.72
35121;BME280;21297;52.008;4.576;2023-06-26T13:51:46;51026.91;;;-143.47;48.43
35121;BME280;21297;52.008;4.576;2023-06-26T13:54:37;50924.59;;;-143.47;47.18
35121;BME280;21297;52.008;4.576;2023-06-26T13:57:24;50841.97;;;-143.47;48.53
35121;BME280;21297;52.008;4.576;2023-06-26T14:00:13;50956.09;;;-143.47;48.04
35121;BME280;21297;52.008;4.576;2023-06-26T14:03:02;51160.72;;;-143.47;45.72
35121;BME280;21297;52.008;4.576;2023-06-26T14:05:48;51213.84;;;-143.47;45.17
35121;BME280;21297;52.008;4.576;2023-06-26T14:08:34;51194.16;;;-143.47;44.87
35121;BME280;21297;52.008;4.576;2023-06-26T14:11:20;51221.69;;;-143.47;43.93
35121;BME280;21297;52.008;4.576;2023-06-26T14:14:05;51292.53;;;-143.47;43.99
35121;BME280;21297;52.008;4.576;2023-06-26T14:16:51;51211.88;;;-143.47;43.49
35121;BME280;21297;52.008;4.576;2023-06-26T14:19:36;51235.47;;;-143.47;44.77
35121;BME280;21297;52.008;4.576;2023-06-26T14:22:22;51469.63;;;-143.47;41.43
35121;BME280;21297;52.008;4.576;2023-06-26T14:25:09;51455.84;;;-143.47;42.65